Terminal Aerodrome Forecast
Issued by NWS Jackson, KY

Current Version | Previous Version | Text Only | Print | Product List | Glossary On
Versions: 1 2 3 4 5 6 7 8 9 10 11 12 13
810
FTUS43 KJKL 261121
TAFJKL
TAF
KJKL 261121Z 2612/2712 VRB03KT P6SM FEW040
      TEMPO 2612/2613 2SM BR SCT002=

USA.gov is the U.S. government's official web portal to all federal, state and local government web resources and services.